Terminal Aerodrome Forecast
Issued by NWS Greer, SC

Home | Current Version | Previous Version | Text Only | Print | Product List | Glossary On
Versions: 1 2 3 4 5 6 7 8 9 10 11 12 13 14 15 16 17 18 19 20 21 22 23 24 25 26 27 28 29 30 31 32
689
FTUS42 KGSP 191250 AAA
TAFAVL
TAF AMD
KAVL 191250Z 1913/2012 35016G25KT P6SM FEW150
     FM191800 33017G27KT P6SM FEW240
     FM192300 33012G20KT P6SM FEW050
     FM200600 34009KT P6SM FEW050=

USA.gov is the U.S. government's official web portal to all federal, state and local government web resources and services.